Manhattan, KS

11:41 AM CDT on August 30, 2015 (GMT -0500)
Manhattan Regional | | Change Station
CLOSE
Current Station
Airport
Location: Manhattan,
Elevation: 1056 ft
Nearby Weather Stations

Elev 1056 ft 39.14 °N, 96.68 °W | Updated 49 minutes ago

Overcast
Overcast
68 °F
Feels Like 68 °F
N
0
Wind Variable Wind from North

Today
High -- | Low -- °F
--% Chance of Precip.
Yesterday
High -- | Low -- °F
Precip. -- in
6:53 AM 8:00 PM
Full, 99% visible
Pressure 30.07 in
Visibility 9.0 miles
Clouds Overcast 600 ft
Dew Point 65 °F
Humidity 90%
Rainfall 0.00 in
Snow Depth Not available.
UV 2 out of 12
Pollen 10.50 out of 12
Air Quality Not available.
Flu Activity Not available.
METAR KMHK 301552Z 00000KT 9SM OVC006 20/18 A3009 RMK AO2 SLP183 T02000183
Pressure 30.07 in
Visibility 9.0 miles
Clouds Overcast 600 ft
Dew Point 65 °F
Humidity 90%
Rainfall 0.00 in
Snow Depth Not available.
UV 2 out of 12
Pollen 10.50 out of 12
Air Quality Not available.
Flu Activity Not available.
METAR KMHK 301552Z 00000KT 9SM OVC006 20/18 A3009 RMK AO2 SLP183 T02000183

10-Day Weather Forecast

×

Almanac

Astronomy

Aug. 30, 2015 Rise Set
Actual Time
Civil Twilight
Nautical Twilight
Astronomical Twilight
Moon
Length of Visible Light
Length of Day
Tomorrow will be .
, % of the Moon is Illuminated

Today's Extremes

State Highs State Lows

Community

WunderPhotos

Upload Photos

1,851,008 photos uploaded!

WunderBlogs® & News

Nearby

Air Quality

  Air Quality AQ Index Pollutant
Not available.

Snow Depth

Station Depth Elevation

Earthquake Activity

City Distance Mag. Time & Date
Minimum magnitude displayed is 2.5.

Coastal Water Temperatures

Place Temperature

Stations

Nearby Weather Stations

Station Location Temp. Windchill Dew Point Humidity Wind Precip. Elev Updated Type